createdAt,value
2016-09-27T00:00:07.962Z,0
2016-09-27T00:01:07.713Z,0
2016-09-27T00:02:08.051Z,0
2016-09-27T00:03:07.998Z,0
2016-09-27T00:04:08.344Z,0
2016-09-27T00:05:08.062Z,0
2016-09-27T00:06:08.173Z,0
2016-09-27T00:07:08.166Z,0
2016-09-27T00:08:08.191Z,0
2016-09-27T00:09:08.475Z,0
2016-09-27T00:10:08.158Z,0
2016-09-27T00:11:08.172Z,0
2016-09-27T00:12:08.510Z,0
2016-09-27T00:13:08.509Z,0
2016-09-27T00:14:08.690Z,0
2016-09-27T00:15:08.567Z,0
2016-09-27T00:16:08.355Z,0
2016-09-27T00:17:08.028Z,0
2016-09-27T00:18:08.350Z,0
2016-09-27T00:19:08.678Z,0
2016-09-27T00:20:08.394Z,0
2016-09-27T00:21:09.029Z,0
2016-09-27T00:22:08.698Z,0
2016-09-27T00:23:07.798Z,0
2016-09-27T00:24:08.192Z,0
2016-09-27T00:25:08.441Z,0
2016-09-27T00:26:08.765Z,0
2016-09-27T00:27:09.092Z,0
2016-09-27T00:28:08.638Z,0
2016-09-27T00:29:08.880Z,0
2016-09-27T00:30:08.349Z,0
2016-09-27T00:31:09.219Z,0
2016-09-27T00:32:09.261Z,0
2016-09-27T00:33:08.905Z,0
2016-09-27T00:34:08.310Z,0
2016-09-27T00:35:08.409Z,0
2016-09-27T00:36:08.391Z,0
2016-09-27T00:37:08.369Z,0
2016-09-27T00:38:08.384Z,0
2016-09-27T00:39:09.018Z,0
2016-09-27T00:40:09.047Z,0
2016-09-27T00:41:08.568Z,0
2016-09-27T00:42:09.086Z,0
2016-09-27T00:43:08.884Z,0
2016-09-27T00:44:08.827Z,0
2016-09-27T00:45:08.858Z,0
2016-09-27T00:46:09.138Z,0
2016-09-27T00:47:08.566Z,0
2016-09-27T00:48:09.185Z,0
2016-09-27T00:49:09.508Z,0
2016-09-27T00:50:08.898Z,0
2016-09-27T00:51:08.999Z,0
2016-09-27T00:52:08.965Z,0
2016-09-27T00:53:08.674Z,0
2016-09-27T00:54:09.010Z,0
2016-09-27T00:55:08.716Z,0
2016-09-27T00:56:08.824Z,0
2016-09-27T00:57:09.375Z,0
2016-09-27T00:58:09.378Z,0
2016-09-27T00:59:09.545Z,0
2016-09-27T01:00:09.137Z,0
2016-09-27T01:01:09.617Z,0
2016-09-27T01:02:08.545Z,0
2016-09-27T01:03:09.173Z,0
2016-09-27T01:04:09.174Z,0
2016-09-27T01:05:08.618Z,0
2016-09-27T01:06:09.857Z,0
2016-09-27T01:07:09.558Z,0
2016-09-27T01:08:09.283Z,0
2016-09-27T01:09:09.296Z,0
2016-09-27T01:10:09.635Z,0
2016-09-27T01:11:09.641Z,0
2016-09-27T01:12:09.986Z,0
2016-09-27T01:13:09.374Z,0
2016-09-27T01:14:09.083Z,0
2016-09-27T01:15:09.407Z,0
2016-09-27T01:16:09.120Z,0
2016-09-27T01:17:09.875Z,0
2016-09-27T01:18:09.865Z,0
2016-09-27T01:19:09.795Z,0
2016-09-27T01:20:09.817Z,0
2016-09-27T01:21:09.842Z,0
2016-09-27T01:22:09.265Z,0
2016-09-27T01:23:09.245Z,0
2016-09-27T01:24:09.262Z,0
2016-09-27T01:25:09.718Z,0
2016-09-27T01:26:09.736Z,0
2016-09-27T01:27:10.255Z,0
2016-09-27T01:28:09.457Z,0
2016-09-27T01:29:10.305Z,0
2016-09-27T01:30:10.048Z,0
2016-09-27T01:31:10.024Z,0
2016-09-27T01:32:09.753Z,0
2016-09-27T01:33:09.767Z,0
2016-09-27T01:34:09.786Z,0
2016-09-27T01:35:09.790Z,0
2016-09-27T01:36:09.845Z,0
2016-09-27T01:37:09.814Z,0
2016-09-27T01:38:10.217Z,0
2016-09-27T01:39:09.554Z,0
2016-09-27T01:40:10.207Z,0
2016-09-27T01:41:10.526Z,0
2016-09-27T01:42:09.925Z,0
2016-09-27T01:43:10.264Z,0
2016-09-27T01:44:09.975Z,0
2016-09-27T01:45:09.982Z,0
2016-09-27T01:46:10.335Z,0
2016-09-27T01:47:10.333Z,0
2016-09-27T01:48:10.414Z,0
2016-09-27T01:49:09.747Z,0
2016-09-27T01:50:10.074Z,0
2016-09-27T01:51:09.795Z,0
2016-09-27T01:52:10.126Z,0
2016-09-27T01:53:10.561Z,0
2016-09-27T01:54:10.466Z,0
2016-09-27T01:55:10.475Z,0
2016-09-27T01:56:09.953Z,0
2016-09-27T01:57:10.633Z,0
2016-09-27T01:58:10.250Z,0
2016-09-27T01:59:10.334Z,0
2016-09-27T02:00:10.306Z,0
2016-09-27T02:01:10.662Z,0
2016-09-27T02:02:10.005Z,0
2016-09-27T02:03:10.620Z,0
2016-09-27T02:04:10.348Z,0
2016-09-27T02:05:10.688Z,0
2016-09-27T02:06:10.704Z,0
2016-09-27T02:07:10.414Z,0
2016-09-27T02:08:10.715Z,0
2016-09-27T02:09:10.136Z,0
2016-09-27T02:10:10.475Z,0
2016-09-27T02:11:11.142Z,0
2016-09-27T02:12:10.860Z,0
2016-09-27T02:13:10.838Z,0
2016-09-27T02:14:10.280Z,0
2016-09-27T02:15:10.624Z,0
2016-09-27T02:16:10.925Z,0
2016-09-27T02:17:10.912Z,0
2016-09-27T02:18:10.615Z,0
2016-09-27T02:19:10.414Z,0
2016-09-27T02:20:10.657Z,0
2016-09-27T02:21:10.716Z,0
2016-09-27T02:22:10.986Z,0
2016-09-27T02:23:11.379Z,0
2016-09-27T02:24:10.714Z,0
2016-09-27T02:25:10.834Z,0
2016-09-27T02:26:10.744Z,0
2016-09-27T02:27:11.475Z,0
2016-09-27T02:28:10.815Z,0
2016-09-27T02:29:11.138Z,0
2016-09-27T02:30:10.848Z,0
2016-09-27T02:31:11.214Z,0
2016-09-27T02:32:11.503Z,0
2016-09-27T02:33:10.894Z,0
2016-09-27T02:34:10.970Z,0
2016-09-27T02:35:11.561Z,0
2016-09-27T02:36:10.723Z,0
2016-09-27T02:37:10.661Z,0
2016-09-27T02:38:11.298Z,0
2016-09-27T02:39:11.312Z,0
2016-09-27T02:40:11.030Z,0
2016-09-27T02:41:10.721Z,0
2016-09-27T02:42:11.062Z,0
2016-09-27T02:43:10.771Z,0
2016-09-27T02:44:11.105Z,0
2016-09-27T02:45:11.121Z,0
2016-09-27T02:46:10.902Z,0
2016-09-27T02:47:11.468Z,0
2016-09-27T02:48:10.887Z,0
2016-09-27T02:49:11.801Z,0
2016-09-27T02:50:11.223Z,0
2016-09-27T02:51:11.233Z,0
2016-09-27T02:52:11.883Z,0
2016-09-27T02:53:10.960Z,0
2016-09-27T02:54:11.361Z,0
2016-09-27T02:55:10.994Z,0
2016-09-27T02:56:11.018Z,0
2016-09-27T02:57:11.661Z,0
2016-09-27T02:58:10.753Z,0
2016-09-27T02:59:11.383Z,0
2016-09-27T03:00:12.114Z,0
2016-09-27T03:01:11.421Z,0
2016-09-27T03:02:11.137Z,0
2016-09-27T03:03:12.045Z,0
2016-09-27T03:04:12.402Z,0
2016-09-27T03:05:12.264Z,0
2016-09-27T03:06:11.210Z,0
2016-09-27T03:07:11.660Z,0
2016-09-27T03:08:12.342Z,0
2016-09-27T03:09:12.190Z,0
2016-09-27T03:10:11.303Z,0
2016-09-27T03:11:11.662Z,0
2016-09-27T03:12:11.634Z,0
2016-09-27T03:13:12.274Z,0
2016-09-27T03:14:11.744Z,0
2016-09-27T03:15:11.701Z,0
2016-09-27T03:16:12.334Z,0
2016-09-27T03:17:12.192Z,0
2016-09-27T03:18:11.853Z,0
2016-09-27T03:19:12.154Z,0
2016-09-27T03:20:11.858Z,0
2016-09-27T03:21:12.450Z,0
2016-09-27T03:22:12.165Z,0
2016-09-27T03:23:11.876Z,0
2016-09-27T03:24:12.055Z,0
2016-09-27T03:25:12.175Z,0
2016-09-27T03:26:11.996Z,0
2016-09-27T03:27:12.415Z,0
2016-09-27T03:28:12.572Z,0
2016-09-27T03:29:12.164Z,0
2016-09-27T03:30:12.104Z,0
2016-09-27T03:31:12.077Z,0
2016-09-27T03:32:11.804Z,0
2016-09-27T03:33:11.769Z,0
2016-09-27T03:34:12.338Z,0
2016-09-27T03:35:12.374Z,0
2016-09-27T03:36:12.541Z,0
2016-09-27T03:37:12.116Z,0
2016-09-27T03:38:12.330Z,0
2016-09-27T03:39:12.065Z,0
2016-09-27T03:40:12.576Z,0
2016-09-27T03:41:12.897Z,0
2016-09-27T03:42:12.607Z,0
2016-09-27T03:43:12.527Z,0
2016-09-27T03:44:12.382Z,0
2016-09-27T03:45:12.548Z,0
2016-09-27T03:46:12.908Z,0
2016-09-27T03:47:12.399Z,0
2016-09-27T03:48:12.611Z,0
2016-09-27T03:49:12.535Z,0
2016-09-27T03:50:12.754Z,0
2016-09-27T03:51:12.437Z,0
2016-09-27T03:52:12.681Z,0
2016-09-27T03:53:12.768Z,0
2016-09-27T03:54:13.222Z,0
2016-09-27T03:55:12.278Z,0
2016-09-27T03:56:12.857Z,0
2016-09-27T03:57:12.579Z,0
2016-09-27T03:58:12.174Z,0
2016-09-27T03:59:12.820Z,0
2016-09-27T04:00:11.892Z,0
2016-09-27T04:01:12.234Z,0
2016-09-27T04:02:12.878Z,0
2016-09-27T04:03:12.627Z,0
2016-09-27T04:04:12.898Z,0
2016-09-27T04:05:13.035Z,0
2016-09-27T04:06:12.682Z,0
2016-09-27T04:07:13.356Z,0
2016-09-27T04:08:12.970Z,0
2016-09-27T04:09:13.030Z,0
2016-09-27T04:10:12.998Z,0
2016-09-27T04:11:13.068Z,0
2016-09-27T04:12:13.042Z,0
2016-09-27T04:13:13.067Z,0
2016-09-27T04:14:13.085Z,0
2016-09-27T04:15:12.800Z,0
2016-09-27T04:16:12.804Z,0
2016-09-27T04:17:13.135Z,0
2016-09-27T04:18:13.289Z,0
2016-09-27T04:19:12.876Z,0
2016-09-27T04:20:13.281Z,0
2016-09-27T04:21:12.600Z,0
2016-09-27T04:22:13.231Z,0
2016-09-27T04:23:12.629Z,0
2016-09-27T04:24:13.276Z,0
2016-09-27T04:25:12.980Z,0
2016-09-27T04:26:13.318Z,0
2016-09-27T04:27:13.310Z,0
2016-09-27T04:28:13.046Z,0
2016-09-27T04:29:13.346Z,0
2016-09-27T04:30:13.059Z,0
2016-09-27T04:31:12.484Z,0
2016-09-27T04:32:12.800Z,0
2016-09-27T04:33:13.110Z,0
2016-09-27T04:34:13.139Z,0
2016-09-27T04:35:13.798Z,0
2016-09-27T04:36:14.035Z,0
2016-09-27T04:37:13.184Z,0
2016-09-27T04:38:13.511Z,0
2016-09-27T04:39:13.230Z,0
2016-09-27T04:40:13.240Z,0
2016-09-27T04:41:13.620Z,0
2016-09-27T04:42:13.691Z,0
2016-09-27T04:43:13.494Z,0
2016-09-27T04:44:14.059Z,0
2016-09-27T04:45:13.639Z,0
2016-09-27T04:46:13.361Z,0
2016-09-27T04:47:13.694Z,0
2016-09-27T04:48:13.118Z,0
2016-09-27T04:49:13.761Z,0
2016-09-27T04:50:13.424Z,0
2016-09-27T04:51:13.761Z,0
2016-09-27T04:52:13.781Z,0
2016-09-27T04:53:13.781Z,0
2016-09-27T04:54:13.492Z,0
2016-09-27T04:55:13.547Z,0
2016-09-27T04:56:13.598Z,0
2016-09-27T04:57:13.589Z,0
2016-09-27T04:58:14.210Z,0
2016-09-27T04:59:13.330Z,0
2016-09-27T05:00:13.629Z,0
2016-09-27T05:01:13.318Z,0
2016-09-27T05:02:13.950Z,0
2016-09-27T05:03:13.972Z,0
2016-09-27T05:04:13.672Z,0
2016-09-27T05:05:13.788Z,0
2016-09-27T05:06:14.022Z,0
2016-09-27T05:07:13.800Z,0
2016-09-27T05:08:14.166Z,0
2016-09-27T05:09:13.787Z,0
2016-09-27T05:10:14.089Z,5
2016-09-27T05:11:13.945Z,5
2016-09-27T05:12:14.460Z,5
2016-09-27T05:13:13.860Z,5
2016-09-27T05:14:13.928Z,5
2016-09-27T05:15:13.885Z,10
2016-09-27T05:16:14.211Z,10
2016-09-27T05:17:14.223Z,10
2016-09-27T05:18:13.663Z,10
2016-09-27T05:19:14.001Z,10
2016-09-27T05:20:14.046Z,15
2016-09-27T05:21:14.291Z,15
2016-09-27T05:22:14.604Z,15
2016-09-27T05:23:14.431Z,15
2016-09-27T05:24:14.373Z,20
2016-09-27T05:25:14.672Z,20
2016-09-27T05:26:14.529Z,20
2016-09-27T05:27:14.078Z,20
2016-09-27T05:28:14.152Z,25
2016-09-27T05:29:14.521Z,25
2016-09-27T05:30:14.754Z,30
2016-09-27T05:31:14.769Z,30
2016-09-27T05:32:14.483Z,30
2016-09-27T05:33:14.501Z,35
2016-09-27T05:34:13.975Z,35
2016-09-27T05:35:14.531Z,40
2016-09-27T05:36:14.872Z,40
2016-09-27T05:37:14.872Z,45
2016-09-27T05:38:14.592Z,45
2016-09-27T05:39:14.713Z,50
2016-09-27T05:40:14.083Z,50
2016-09-27T05:41:14.756Z,55
2016-09-27T05:42:14.711Z,55
2016-09-27T05:43:14.741Z,60
2016-09-27T05:44:15.003Z,60
2016-09-27T05:45:14.742Z,60
2016-09-27T05:46:14.482Z,60
2016-09-27T05:47:15.030Z,65
2016-09-27T05:48:14.810Z,65
2016-09-27T05:49:14.176Z,70
2016-09-27T05:50:15.113Z,75
2016-09-27T05:51:14.654Z,75
2016-09-27T05:52:14.552Z,85
2016-09-27T05:53:14.910Z,85
2016-09-27T05:54:14.613Z,95
2016-09-27T05:55:15.229Z,110
2016-09-27T05:56:14.293Z,160
2016-09-27T05:57:14.623Z,190
2016-09-27T05:58:14.943Z,195
2016-09-27T05:59:14.360Z,200
2016-09-27T06:00:14.990Z,215
2016-09-27T06:01:14.388Z,220
2016-09-27T06:02:15.022Z,230
2016-09-27T06:03:15.034Z,240
2016-09-27T06:04:14.811Z,255
2016-09-27T06:05:14.778Z,255
2016-09-27T06:06:14.984Z,265
2016-09-27T06:07:14.784Z,275
2016-09-27T06:08:14.615Z,285
2016-09-27T06:09:14.583Z,300
2016-09-27T06:10:14.582Z,305
2016-09-27T06:11:14.981Z,315
2016-09-27T06:12:14.884Z,335
2016-09-27T06:13:14.622Z,335
2016-09-27T06:14:15.413Z,345
2016-09-27T06:15:14.958Z,355
2016-09-27T06:16:15.339Z,360
2016-09-27T06:17:15.069Z,365
2016-09-27T06:18:15.013Z,375
2016-09-27T06:19:15.054Z,390
2016-09-27T06:20:14.451Z,400
2016-09-27T06:21:15.123Z,410
2016-09-27T06:22:15.783Z,420
2016-09-27T06:23:15.453Z,425
2016-09-27T06:24:15.198Z,430
2016-09-27T06:25:15.169Z,430
2016-09-27T06:26:15.812Z,435
2016-09-27T06:27:15.046Z,440
2016-09-27T06:28:15.531Z,455
2016-09-27T06:29:15.982Z,460
2016-09-27T06:30:15.269Z,470
2016-09-27T06:31:15.081Z,480
2016-09-27T06:32:15.640Z,485
2016-09-27T06:33:15.482Z,500
2016-09-27T06:34:15.429Z,510
2016-09-27T06:35:15.705Z,510
2016-09-27T06:36:16.023Z,510
2016-09-27T06:37:15.575Z,510
2016-09-27T06:38:15.871Z,520
2016-09-27T06:39:15.836Z,535
2016-09-27T06:40:15.193Z,540
2016-09-27T06:41:15.519Z,545
2016-09-27T06:42:15.540Z,550
2016-09-27T06:43:15.730Z,555
2016-09-27T06:44:15.270Z,575
2016-09-27T06:45:15.929Z,575
2016-09-27T06:46:15.373Z,590
2016-09-27T06:47:15.681Z,600
2016-09-27T06:48:15.997Z,610
2016-09-27T06:49:15.737Z,615
2016-09-27T06:50:16.347Z,605
2016-09-27T06:51:15.753Z,590
2016-09-27T06:52:16.156Z,580
2016-09-27T06:53:16.356Z,590
2016-09-27T06:54:16.245Z,615
2016-09-27T06:55:16.189Z,645
2016-09-27T06:56:16.254Z,660
2016-09-27T06:57:16.024Z,635
2016-09-27T06:58:15.940Z,640
2016-09-27T06:59:16.589Z,645
2016-09-27T07:00:15.666Z,650
2016-09-27T07:01:16.644Z,660
2016-09-27T07:02:16.397Z,665
2016-09-27T07:03:16.044Z,680
2016-09-27T07:04:16.385Z,675
2016-09-27T07:05:16.729Z,675
2016-09-27T07:06:16.540Z,690
2016-09-27T07:07:16.778Z,690
2016-09-27T07:08:15.863Z,685
2016-09-27T07:09:15.897Z,700
2016-09-27T07:10:16.457Z,705
2016-09-27T07:11:16.626Z,705
2016-09-27T07:12:16.586Z,710
2016-09-27T07:13:16.297Z,695
2016-09-27T07:14:16.452Z,535
2016-09-27T07:15:16.719Z,310
2016-09-27T07:16:16.737Z,270
2016-09-27T07:17:16.756Z,260
2016-09-27T07:18:16.198Z,255
2016-09-27T07:19:16.847Z,250
2016-09-27T07:20:16.192Z,245
2016-09-27T07:21:16.661Z,245
2016-09-27T07:22:16.552Z,225
2016-09-27T07:23:16.909Z,215
2016-09-27T07:24:16.586Z,205
2016-09-27T07:25:16.293Z,205
2016-09-27T07:26:17.000Z,205
2016-09-27T07:27:16.376Z,200
2016-09-27T07:28:17.349Z,200
2016-09-27T07:29:16.385Z,200
2016-09-27T07:30:16.777Z,200
2016-09-27T07:31:17.087Z,200
2016-09-27T07:32:16.259Z,200
2016-09-27T07:33:16.493Z,200
2016-09-27T07:34:48.664Z,200
2016-09-27T07:35:17.208Z,200
2016-09-27T07:36:17.532Z,200
2016-09-27T07:37:17.219Z,200
2016-09-27T07:38:17.307Z,200
2016-09-27T07:39:17.277Z,200
2016-09-27T07:40:16.760Z,200
2016-09-27T07:41:17.069Z,200
2016-09-27T07:42:17.349Z,200
2016-09-27T07:43:17.356Z,200
2016-09-27T07:44:17.528Z,200
2016-09-27T07:45:17.389Z,200
2016-09-27T07:46:17.111Z,200
2016-09-27T07:47:17.788Z,200
2016-09-27T07:48:17.482Z,200
2016-09-27T07:49:17.478Z,200
2016-09-27T07:50:16.888Z,200
2016-09-27T07:51:17.240Z,200
2016-09-27T07:52:17.585Z,200
2016-09-27T07:53:17.301Z,200
2016-09-27T07:54:17.921Z,200
2016-09-27T07:55:17.320Z,200
2016-09-27T07:56:17.339Z,200
2016-09-27T07:57:17.378Z,200
2016-09-27T07:58:17.087Z,205
2016-09-27T07:59:17.105Z,205
2016-09-27T08:00:18.039Z,205
2016-09-27T08:01:17.482Z,205
2016-09-27T08:02:17.889Z,205
2016-09-27T08:03:17.501Z,205
2016-09-27T08:04:18.183Z,205
2016-09-27T08:05:17.700Z,205
2016-09-27T08:06:17.639Z,205
2016-09-27T08:07:18.223Z,205
2016-09-27T08:08:18.057Z,205
2016-09-27T08:09:17.685Z,205
2016-09-27T08:10:17.553Z,205
2016-09-27T08:11:18.034Z,205
2016-09-27T08:12:17.683Z,205
2016-09-27T08:13:17.749Z,205
2016-09-27T08:14:18.067Z,205
2016-09-27T08:15:17.168Z,205
2016-09-27T08:16:17.800Z,205
2016-09-27T08:17:17.826Z,205
2016-09-27T08:18:18.030Z,205
2016-09-27T08:19:18.395Z,205
2016-09-27T08:20:18.400Z,205
2016-09-27T08:21:18.181Z,205
2016-09-27T08:22:18.466Z,205
2016-09-27T08:23:18.417Z,205
2016-09-27T08:24:18.618Z,205
2016-09-27T08:25:18.542Z,205
2016-09-27T08:26:18.456Z,205
2016-09-27T08:27:18.494Z,200
2016-09-27T08:28:17.874Z,200
2016-09-27T08:29:18.443Z,200
2016-09-27T08:30:19.261Z,200
2016-09-27T08:31:18.232Z,200
2016-09-27T08:32:18.517Z,200
2016-09-27T08:33:18.181Z,200
2016-09-27T08:34:18.526Z,200
2016-09-27T08:35:18.299Z,200
2016-09-27T08:36:18.357Z,200
2016-09-27T08:37:18.313Z,200
2016-09-27T08:38:18.949Z,200
2016-09-27T08:39:19.001Z,200
2016-09-27T08:40:18.419Z,200
2016-09-27T08:41:18.940Z,200
2016-09-27T08:42:18.413Z,200
2016-09-27T08:43:18.540Z,200
2016-09-27T08:44:18.431Z,200
2016-09-27T08:45:18.176Z,200
2016-09-27T08:46:18.961Z,200
2016-09-27T08:47:19.222Z,200
2016-09-27T08:48:18.620Z,200
2016-09-27T08:49:19.042Z,200
2016-09-27T08:50:18.636Z,200
2016-09-27T08:51:18.986Z,200
2016-09-27T08:52:19.155Z,200
2016-09-27T08:53:18.637Z,200
2016-09-27T08:54:19.267Z,195
2016-09-27T08:55:19.044Z,195
2016-09-27T08:56:19.367Z,195
2016-09-27T08:57:18.435Z,195
2016-09-27T08:58:19.292Z,195
2016-09-27T08:59:19.112Z,195
2016-09-27T09:00:19.131Z,195
2016-09-27T09:01:19.553Z,195
2016-09-27T09:02:18.841Z,195
2016-09-27T09:03:18.262Z,195
2016-09-27T09:04:19.201Z,195
2016-09-27T09:05:18.601Z,195
2016-09-27T09:06:19.095Z,195
2016-09-27T09:07:19.084Z,195
2016-09-27T09:08:19.076Z,195
2016-09-27T09:09:19.405Z,195
2016-09-27T09:10:19.123Z,195
2016-09-27T09:11:19.421Z,195
2016-09-27T09:12:19.389Z,195
2016-09-27T09:13:19.783Z,195
2016-09-27T09:14:19.112Z,195
2016-09-27T09:15:19.812Z,195
2016-09-27T09:16:18.612Z,195
2016-09-27T09:17:19.546Z,195
2016-09-27T09:18:19.553Z,190
2016-09-27T09:19:19.221Z,190
2016-09-27T09:20:19.626Z,190
2016-09-27T09:21:19.628Z,190
2016-09-27T09:22:19.323Z,190
2016-09-27T09:23:19.194Z,190
2016-09-27T09:24:19.735Z,190
2016-09-27T09:25:19.131Z,190
2016-09-27T09:26:19.612Z,190
2016-09-27T09:27:19.440Z,190
2016-09-27T09:28:19.791Z,195
2016-09-27T09:29:19.794Z,190
2016-09-27T09:30:19.306Z,190
2016-09-27T09:31:19.886Z,190
2016-09-27T09:32:19.882Z,190
2016-09-27T09:33:19.576Z,190
2016-09-27T09:34:19.395Z,190
2016-09-27T09:35:19.333Z,190
2016-09-27T09:36:19.445Z,190
2016-09-27T09:37:19.361Z,190
2016-09-27T09:38:19.721Z,190
2016-09-27T09:39:19.447Z,190
2016-09-27T09:40:19.588Z,190
2016-09-27T09:41:20.105Z,190
2016-09-27T09:42:20.445Z,190
2016-09-27T09:43:19.885Z,190
2016-09-27T09:44:20.506Z,190
2016-09-27T09:45:20.496Z,190
2016-09-27T09:46:20.192Z,185
2016-09-27T09:47:19.665Z,185
2016-09-27T09:48:20.347Z,185
2016-09-27T09:49:20.312Z,185
2016-09-27T09:50:20.406Z,190
2016-09-27T09:51:20.445Z,190
2016-09-27T09:52:20.031Z,190
2016-09-27T09:53:20.542Z,190
2016-09-27T09:54:19.884Z,190
2016-09-27T09:55:20.130Z,190
2016-09-27T09:56:19.535Z,190
2016-09-27T09:57:20.229Z,190
2016-09-27T09:58:19.942Z,185
2016-09-27T09:59:20.202Z,185
2016-09-27T10:00:20.549Z,185
2016-09-27T10:01:20.562Z,185
2016-09-27T10:02:20.395Z,185
2016-09-27T10:03:20.931Z,185
2016-09-27T10:04:20.033Z,185
2016-09-27T10:05:20.393Z,185
2016-09-27T10:06:20.693Z,185
2016-09-27T10:07:20.714Z,185
2016-09-27T10:08:20.742Z,185
2016-09-27T10:09:20.802Z,185
2016-09-27T10:10:20.170Z,185
2016-09-27T10:11:20.559Z,185
2016-09-27T10:12:20.328Z,185
2016-09-27T10:13:21.154Z,185
2016-09-27T10:14:20.278Z,185
2016-09-27T10:15:20.714Z,185
2016-09-27T10:16:20.642Z,185
2016-09-27T10:17:20.437Z,185
2016-09-27T10:18:20.452Z,185
2016-09-27T10:19:20.714Z,190
2016-09-27T10:20:20.717Z,190
2016-09-27T10:21:20.432Z,190
2016-09-27T10:22:21.396Z,190
2016-09-27T10:23:20.804Z,195
2016-09-27T10:24:20.834Z,185
2016-09-27T10:25:20.552Z,185
2016-09-27T10:26:20.921Z,185
2016-09-27T10:27:21.541Z,185
2016-09-27T10:28:21.238Z,190
2016-09-27T10:29:20.956Z,185
2016-09-27T10:30:21.285Z,185
2016-09-27T10:31:21.387Z,190
2016-09-27T10:32:20.401Z,190
2016-09-27T10:33:21.359Z,190
2016-09-27T10:34:21.386Z,190
2016-09-27T10:35:21.109Z,190
2016-09-27T10:36:21.441Z,190
2016-09-27T10:37:21.864Z,185
2016-09-27T10:38:20.843Z,175
2016-09-27T10:39:20.884Z,185
2016-09-27T10:40:21.213Z,185
2016-09-27T10:41:21.274Z,190
2016-09-27T10:42:21.618Z,190
2016-09-27T10:43:21.363Z,190
2016-09-27T10:44:21.014Z,190
2016-09-27T10:45:21.828Z,190
2016-09-27T10:46:21.361Z,190
2016-09-27T10:47:20.773Z,190
2016-09-27T10:48:22.051Z,190
2016-09-27T10:49:21.449Z,190
2016-09-27T10:50:21.674Z,190
2016-09-27T10:51:21.531Z,190
2016-09-27T10:52:20.890Z,190
2016-09-27T10:53:21.231Z,190
2016-09-27T10:54:21.663Z,190
2016-09-27T10:55:21.763Z,190
2016-09-27T10:56:21.922Z,195
2016-09-27T10:57:21.861Z,195
2016-09-27T10:58:22.010Z,195
2016-09-27T10:59:21.744Z,190
2016-09-27T11:00:21.407Z,195
2016-09-27T11:01:22.132Z,200
2016-09-27T11:02:21.461Z,195
2016-09-27T11:03:21.177Z,190
2016-09-27T11:04:22.239Z,190
2016-09-27T11:05:21.527Z,190
2016-09-27T11:06:21.568Z,190
2016-09-27T11:07:22.383Z,195
2016-09-27T11:08:22.228Z,195
2016-09-27T11:09:54.081Z,190
2016-09-27T11:10:22.284Z,190
2016-09-27T11:11:54.291Z,185
2016-09-27T11:12:22.129Z,185
2016-09-27T11:13:22.363Z,190
2016-09-27T11:14:22.692Z,190
2016-09-27T11:15:22.403Z,190
2016-09-27T11:16:22.174Z,195
2016-09-27T11:17:22.033Z,190
2016-09-27T11:18:22.173Z,185
2016-09-27T11:19:22.505Z,190
2016-09-27T11:20:22.252Z,190
2016-09-27T11:21:22.870Z,190
2016-09-27T11:22:22.292Z,190
2016-09-27T11:23:22.356Z,190
2016-09-27T11:24:22.402Z,190
2016-09-27T11:25:22.403Z,190
2016-09-27T11:26:22.743Z,190
2016-09-27T11:27:22.452Z,185
2016-09-27T11:28:22.882Z,185
2016-09-27T11:29:22.793Z,190
2016-09-27T11:30:22.931Z,185
2016-09-27T11:31:22.867Z,180
2016-09-27T11:32:22.875Z,185
2016-09-27T11:33:22.243Z,190
2016-09-27T11:34:22.893Z,185
2016-09-27T11:35:22.934Z,190
2016-09-27T11:36:23.032Z,190
2016-09-27T11:37:22.746Z,190
2016-09-27T11:38:22.672Z,190
2016-09-27T11:39:54.713Z,190
2016-09-27T11:40:23.054Z,190
2016-09-27T11:41:22.457Z,190
2016-09-27T11:42:22.483Z,190
2016-09-27T11:43:23.108Z,190
2016-09-27T11:45:22.595Z,190
2016-09-27T11:46:23.684Z,200
2016-09-27T11:47:23.212Z,210
2016-09-27T11:48:23.259Z,205
2016-09-27T11:49:23.284Z,200
2016-09-27T11:50:23.044Z,195
2016-09-27T11:51:22.717Z,190
2016-09-27T11:52:23.656Z,190
2016-09-27T11:53:23.078Z,190
2016-09-27T11:54:22.781Z,190
2016-09-27T11:55:23.432Z,190
2016-09-27T11:56:22.582Z,190
2016-09-27T11:57:23.922Z,200
2016-09-27T11:58:23.493Z,210
2016-09-27T11:59:23.278Z,210
2016-09-27T12:00:23.560Z,215
2016-09-27T12:01:23.372Z,220
2016-09-27T12:02:23.278Z,230
2016-09-27T12:03:23.647Z,260
2016-09-27T12:04:23.386Z,265
2016-09-27T12:05:23.373Z,260
2016-09-27T12:06:23.777Z,270
2016-09-27T12:07:23.743Z,275
2016-09-27T12:08:23.449Z,275
2016-09-27T12:09:23.492Z,260
2016-09-27T12:10:23.482Z,250
2016-09-27T12:11:23.842Z,235
2016-09-27T12:12:23.872Z,220
2016-09-27T12:13:23.904Z,220
2016-09-27T12:14:23.924Z,215
2016-09-27T12:15:24.237Z,210
2016-09-27T12:16:24.007Z,210
2016-09-27T12:17:24.294Z,210
2016-09-27T12:18:24.118Z,210
2016-09-27T12:19:23.740Z,210
2016-09-27T12:20:23.462Z,205
2016-09-27T12:21:23.534Z,205
2016-09-27T12:22:23.512Z,205
2016-09-27T12:23:24.292Z,200
2016-09-27T12:24:24.294Z,200
2016-09-27T12:25:24.527Z,195
2016-09-27T12:26:23.632Z,200
2016-09-27T12:27:24.261Z,200
2016-09-27T12:28:24.391Z,205
2016-09-27T12:29:23.701Z,200
2016-09-27T12:30:24.030Z,200
2016-09-27T12:31:24.141Z,200
2016-09-27T12:32:24.081Z,200
2016-09-27T12:33:24.721Z,200
2016-09-27T12:34:24.447Z,195
2016-09-27T12:35:24.165Z,190
2016-09-27T12:36:24.915Z,190
2016-09-27T12:37:23.912Z,185
2016-09-27T12:38:24.961Z,185
2016-09-27T12:39:25.192Z,185
2016-09-27T12:40:24.646Z,185
2016-09-27T12:41:25.188Z,185
2016-09-27T12:42:25.160Z,185
2016-09-27T12:43:25.180Z,185
2016-09-27T12:44:23.785Z,185
2016-09-27T12:45:24.882Z,165
2016-09-27T12:46:24.234Z,175
2016-09-27T12:47:24.359Z,170
2016-09-27T12:48:24.804Z,180
2016-09-27T12:49:24.539Z,185
2016-09-27T12:50:24.702Z,170
2016-09-27T12:51:24.330Z,165
2016-09-27T12:52:24.762Z,180
2016-09-27T12:53:25.011Z,180
2016-09-27T12:54:25.161Z,180
2016-09-27T12:55:24.993Z,180
2016-09-27T12:56:25.063Z,175
2016-09-27T12:57:25.073Z,160
2016-09-27T12:58:24.551Z,170
2016-09-27T12:59:24.501Z,180
2016-09-27T13:00:25.178Z,185
2016-09-27T13:01:24.957Z,190
2016-09-27T13:02:25.171Z,190
2016-09-27T13:03:24.611Z,190
2016-09-27T13:04:24.927Z,185
2016-09-27T13:05:25.267Z,185
2016-09-27T13:06:25.019Z,185
2016-09-27T13:07:25.323Z,185
2016-09-27T13:08:25.029Z,185
2016-09-27T13:09:25.042Z,185
2016-09-27T13:10:25.721Z,185
2016-09-27T13:11:25.499Z,185
2016-09-27T13:12:25.541Z,185
2016-09-27T13:13:25.829Z,195
2016-09-27T13:14:25.531Z,195
2016-09-27T13:15:25.888Z,190
2016-09-27T13:16:25.271Z,190
2016-09-27T13:17:24.936Z,185
2016-09-27T13:18:25.600Z,190
2016-09-27T13:19:25.937Z,190
2016-09-27T13:20:25.345Z,185
2016-09-27T13:21:25.362Z,190
2016-09-27T13:22:25.779Z,180
2016-09-27T13:23:25.720Z,180
2016-09-27T13:24:25.429Z,180
2016-09-27T13:25:26.110Z,180
2016-09-27T13:26:25.578Z,180
2016-09-27T13:27:25.520Z,185
2016-09-27T13:28:26.001Z,195
2016-09-27T13:29:25.968Z,205
2016-09-27T13:30:25.271Z,220
2016-09-27T13:31:26.487Z,230
2016-09-27T13:32:26.382Z,230
2016-09-27T13:33:25.372Z,225
2016-09-27T13:34:25.435Z,230
2016-09-27T13:35:25.401Z,235
2016-09-27T13:36:25.434Z,230
2016-09-27T13:37:26.090Z,225
2016-09-27T13:38:25.852Z,220
2016-09-27T13:39:25.820Z,220
2016-09-27T13:40:25.971Z,225
2016-09-27T13:41:25.260Z,220
2016-09-27T13:42:25.931Z,215
2016-09-27T13:43:26.241Z,210
2016-09-27T13:44:26.309Z,185
2016-09-27T13:45:26.071Z,175
2016-09-27T13:46:26.318Z,170
2016-09-27T13:47:25.790Z,170
2016-09-27T13:48:25.758Z,180
2016-09-27T13:49:26.686Z,175
2016-09-27T13:50:26.117Z,170
2016-09-27T13:51:26.205Z,165
2016-09-27T13:52:25.548Z,160
2016-09-27T13:53:26.249Z,165
2016-09-27T13:54:26.868Z,160
2016-09-27T13:55:26.253Z,175
2016-09-27T13:56:25.966Z,180
2016-09-27T13:57:26.431Z,200
2016-09-27T13:58:26.341Z,215
2016-09-27T13:59:26.670Z,205
2016-09-27T14:00:26.381Z,205
2016-09-27T14:01:26.702Z,215
2016-09-27T14:02:26.185Z,220
2016-09-27T14:03:26.769Z,230
2016-09-27T14:04:26.855Z,250
2016-09-27T14:05:26.888Z,275
2016-09-27T14:06:27.169Z,260
2016-09-27T14:07:26.869Z,230
2016-09-27T14:08:26.643Z,215
2016-09-27T14:09:26.670Z,205
2016-09-27T14:10:26.633Z,200